Theologos P . — SZNB — position and weather

sailwx.info

Track history (hours):
 
Tides and Currents Weather Stations Pressure Air Temp Water Temp Dewpoint Dewpoint Depression Visibility Wind Speed Wind Dir Waves Ship Positions

Theologos P .

Last reported at 2015-May-30 13:28 UTC. Time now 2015-May-30 14:29 UTC.
Position N 38°01' E 024°01'.

Length 118 m; draft 4.5 m.

Type: Passenger vessel. MMSI: 240521000.

Date/timePositionNaut miles runAvg speedWind from/ knotsBaromVisibWave heightAir tempDewpointWater temp
2015-May-30 13:28N 38°01' E 024°01'1818.2
2015-May-30 12:27N 37°54' E 024°23'2419.2
2015-May-30 11:13N 37°44' E 024°49'1219.0
2015-May-30 10:33N 37°35' E 025°01'1616.4
2015-May-30 09:33N 37°28' E 025°19'6 5.6
2015-May-30 08:34N 37°30' E 025°13'1312.8
2015-May-30 07:34N 37°38' E 024°60'4515.0
2015-May-30 04:32N 37°59' E 024°10'7 1.7
2015-May-30 00:33N 38°01' E 024°01'1918.2
2015-May-29 23:30N 37°56' E 024°24'2418.0
2015-May-29 22:12N 37°44' E 024°50'1218.5
2015-May-29 21:34N 37°36' E 025°01'1716.9
2015-May-29 20:34N 37°28' E 025°19'2 2.3
2015-May-29 19:34N 37°28' E 025°17'1111.2
2015-May-29 18:33N 37°34' E 025°04'4814.2
2015-May-29 15:11N 37°58' E 024°12'10 1.7
2015-May-29 09:23N 38°01' E 024°01'1316.2
2015-May-29 08:33N 37°57' E 024°17'3615.0
2015-May-29 06:11N 37°40' E 024°56'1118.0
2015-May-29 05:33N 37°33' E 025°07'1111.1
2015-May-29 04:33N 37°28' E 025°20'0 0.0
2015-May-29 03:33N 37°28' E 025°20'0 0.0
2015-May-29 02:33N 37°28' E 025°20'0 0.0
2015-May-29 01:33N 37°28' E 025°20'0 0.0
2015-May-29 00:33N 37°28' E 025°20'0 0.0
2015-May-28 23:34N 37°28' E 025°20'0 0.0
2015-May-28 22:33N 37°28' E 025°20'0 0.0
2015-May-28 21:33N 37°28' E 025°20'0 0.0
2015-May-28 20:33N 37°28' E 025°20'4 3.9
2015-May-28 19:34N 37°29' E 025°15'1111.5
2015-May-28 18:33N 37°35' E 025°03'4614.3
2015-May-28 15:19N 37°58' E 024°12'9 1.6
2015-May-28 09:24N 38°01' E 024°01'1517.2
2015-May-28 08:32N 37°57' E 024°19'2814.1
2015-May-28 06:33N 37°45' E 024°51'1818.2
2015-May-28 05:33N 37°32' E 025°07'1110.7
2015-May-28 04:34N 37°28' E 025°20'0 0.0
2015-May-28 03:33N 37°28' E 025°20'0 0.0
2015-May-28 02:33N 37°28' E 025°20'0 0.0
2015-May-28 01:34N 37°28' E 025°20'0 0.0
2015-May-28 00:34N 37°28' E 025°20'0 0.0
2015-May-27 23:34N 37°28' E 025°20'0 0.0
2015-May-27 22:34N 37°28' E 025°20'0 0.0
2015-May-27 21:34N 37°28' E 025°20'0 0.0
2015-May-27 20:33N 37°28' E 025°20'1 1.4
2015-May-27 19:34N 37°28' E 025°18'1211.8
2015-May-27 18:34N 37°34' E 025°05'4514.6
2015-May-27 15:29N 37°57' E 024°17'13 2.1
2015-May-27 09:18N 38°01' E 024°01'1418.2
2015-May-27 08:32N 37°57' E 024°17'2914.4
2015-May-27 06:32N 37°45' E 024°50'1818.4
2015-May-27 05:33N 37°33' E 025°07'1110.9
2015-May-27 04:33N 37°28' E 025°20'0 0.0
2015-May-27 03:33N 37°28' E 025°20'0 0.0
2015-May-27 02:33N 37°28' E 025°20'0 0.0
2015-May-27 01:33N 37°28' E 025°20'0 0.0
2015-May-27 00:33N 37°28' E 025°20'0 0.0
2015-May-26 23:33N 37°28' E 025°20'0 0.0
2015-May-26 22:33N 37°28' E 025°20'0 0.0
2015-May-26 21:33N 37°28' E 025°20'0 0.0
2015-May-26 20:33N 37°28' E 025°20'0 0.1
2015-May-26 19:33N 37°28' E 025°20'1010.3
2015-May-26 18:33N 37°32' E 025°08'1717.5
2015-May-26 17:33N 37°44' E 024°51'2913.4
2015-May-26 15:22N 37°57' E 024°18'14 2.4
2015-May-26 09:19N 38°01' E 024°01'1417.3
2015-May-26 08:29N 37°57' E 024°18'2814.2
2015-May-26 06:30N 37°45' E 024°50'1718.6
2015-May-26 05:33N 37°33' E 025°07'1111.4
2015-May-26 04:33N 37°28' E 025°20'0 0.0
2015-May-26 03:33N 37°28' E 025°20'0 0.0
2015-May-26 02:33N 37°28' E 025°20'0 0.0
2015-May-26 01:33N 37°28' E 025°20'0 0.0
2015-May-26 00:33N 37°28' E 025°20'0 0.0
2015-May-25 23:33N 37°28' E 025°20'0 0.0
2015-May-25 22:33N 37°28' E 025°20'0 0.0
2015-May-25 21:33N 37°28' E 025°20'0 0.0
2015-May-25 20:33N 37°28' E 025°20'1 0.7
2015-May-25 19:33N 37°28' E 025°19'1212.1
2015-May-25 18:33N 37°33' E 025°05'4414.2
2015-May-25 15:29N 37°57' E 024°18'15 2.4
2015-May-25 09:20N 38°01' E 024°01'1417.5
2015-May-25 08:32N 37°57' E 024°17'2914.2
2015-May-25 06:31N 37°44' E 024°50'1818.6
2015-May-25 05:33N 37°33' E 025°07'1110.9
2015-May-25 04:33N 37°28' E 025°20'0 0.0
2015-May-25 03:33N 37°28' E 025°20'0 0.0
2015-May-25 02:33N 37°28' E 025°20'0 0.0
2015-May-25 01:33N 37°28' E 025°20'0 0.0
2015-May-25 00:33N 37°28' E 025°20'0 0.0
2015-May-24 23:33N 37°28' E 025°20'0 0.0
2015-May-24 22:33N 37°28' E 025°20'0 0.0
2015-May-24 21:33N 37°28' E 025°20'0 0.0
2015-May-24 20:33N 37°28' E 025°20'0 0.0
2015-May-24 19:33N 37°28' E 025°20'9 9.2
2015-May-24 18:33N 37°32' E 025°09'1616.3
2015-May-24 17:33N 37°42' E 024°53'3014.2
2015-May-24 15:27N 37°56' E 024°20'12 6.3
2015-May-24 13:33N 38°00' E 024°06'4615.2
2015-May-24 10:33N 37°39' E 024°57'1313.1
2015-May-24 09:33N 37°31' E 025°10'9 8.5
2015-May-24 08:33N 37°28' E 025°20'0 0.0
2015-May-24 07:33N 37°28' E 025°20'0 0.0
2015-May-24 06:33N 37°28' E 025°20'0 0.0
2015-May-24 05:33N 37°28' E 025°20'0 0.0
2015-May-24 04:33N 37°28' E 025°20'0 0.0
2015-May-24 03:33N 37°28' E 025°20'0 0.0
2015-May-24 02:33N 37°28' E 025°20'0 0.0
2015-May-24 01:33N 37°28' E 025°20'0 0.0
2015-May-24 00:33N 37°28' E 025°20'0 0.0
2015-May-23 23:33N 37°28' E 025°20'0 0.0
2015-May-23 22:33N 37°28' E 025°20'0 0.0
2015-May-23 21:33N 37°28' E 025°20'0 0.0
2015-May-23 20:33N 37°28' E 025°20'0 0.0
2015-May-23 19:33N 37°28' E 025°20'1010.2
2015-May-23 18:34N 37°32' E 025°08'1817.7
2015-May-23 17:34N 37°44' E 024°51'2914.0
2015-May-23 15:29N 37°57' E 024°18'11 5.6
2015-May-23 13:33N 38°00' E 024°05'4515.1
2015-May-23 10:34N 37°40' E 024°56'1313.2
2015-May-23 09:33N 37°32' E 025°09'9 8.9
2015-May-23 08:33N 37°28' E 025°20'0 0.0
2015-May-23 07:33N 37°28' E 025°20'0 0.0
2015-May-23 06:33N 37°28' E 025°20'0 0.0
2015-May-23 05:33N 37°28' E 025°20'0 0.0
2015-May-23 04:33N 37°28' E 025°20'0 0.0
2015-May-23 03:33N 37°28' E 025°20'0 0.0
2015-May-23 02:33N 37°28' E 025°20'0 0.0
2015-May-23 01:33N 37°28' E 025°20'0 0.0
2015-May-23 00:33N 37°28' E 025°20'0 0.0
2015-May-22 23:33N 37°28' E 025°20'0 0.0
2015-May-22 22:33N 37°28' E 025°20'0 0.0
2015-May-22 21:33N 37°28' E 025°20'0 0.0
2015-May-22 20:33N 37°28' E 025°20'0 0.2
2015-May-22 19:33N 37°28' E 025°19'1111.0
2015-May-22 18:33N 37°33' E 025°07'1817.7
2015-May-22 17:33N 37°45' E 024°51'2913.7
2015-May-22 15:26N 37°57' E 024°17'14 2.2
2015-May-22 09:19N 38°01' E 024°01'1417.3
2015-May-22 08:31N 37°57' E 024°17'2914.4
2015-May-22 06:31N 37°45' E 024°51'1818.5
2015-May-22 05:34N 37°33' E 025°07'1111.3
2015-May-22 04:33N 37°28' E 025°20'0 0.0
2015-May-22 03:33N 37°28' E 025°20'0 0.0
2015-May-22 02:34N 37°28' E 025°20'0 0.0
2015-May-22 01:33N 37°28' E 025°20'0 0.0
2015-May-22 00:33N 37°28' E 025°20'0 0.0
2015-May-21 23:33N 37°28' E 025°20'0 0.0
2015-May-21 22:33N 37°28' E 025°20'0 0.0
2015-May-21 21:33N 37°28' E 025°20'0 0.0
2015-May-21 20:33N 37°28' E 025°20'0 0.1
2015-May-21 19:33N 37°28' E 025°20'10 9.9
2015-May-21 18:33N 37°32' E 025°08'1817.6
2015-May-21 17:33N 37°44' E 024°52'44 5.3
2015-May-21 09:21N 38°01' E 024°01'1417.2
2015-May-21 08:33N 37°57' E 024°17'2914.4
2015-May-21 06:32N 37°45' E 024°51'1818.3
2015-May-21 05:34N 37°33' E 025°07'1111.1
2015-May-21 04:33N 37°28' E 025°20'0 0.0
2015-May-21 03:33N 37°28' E 025°20'0 0.0
2015-May-21 02:33N 37°28' E 025°20'0 0.0
2015-May-21 01:33N 37°28' E 025°20'0 0.0
2015-May-21 00:33N 37°28' E 025°20'0 0.0
2015-May-20 23:33N 37°28' E 025°20'0 0.0
2015-May-20 22:33N 37°28' E 025°20'0 0.0
2015-May-20 21:33N 37°28' E 025°20'0 0.0
2015-May-20 20:33N 37°28' E 025°20'0 0.0
2015-May-20 19:33N 37°28' E 025°20'10 9.8
2015-May-20 18:33N 37°32' E 025°09'1717.4
2015-May-20 17:33N 37°44' E 024°52'  
Track history (hours):
 
Tides and Currents Weather Stations Pressure Air Temp Water Temp Dewpoint Dewpoint Depression Visibility Wind Speed Wind Dir Waves Ship Positions

Theologos P .

Last reported at 2015-May-30 13:28 UTC. Time now 2015-May-30 14:29 UTC.
Position N 38°01' E 024°01'.

Length 118 m; draft 4.5 m.

Type: Passenger vessel. MMSI: 240521000.

Date/timePositionNaut miles runAvg speedWind from/ knotsBaromVisibWave heightAir tempDewpointWater temp
2015-May-30 13:28N 38°01' E 024°01'1818.2
2015-May-30 12:27N 37°54' E 024°23'2419.2
2015-May-30 11:13N 37°44' E 024°49'1219.0
2015-May-30 10:33N 37°35' E 025°01'1616.4
2015-May-30 09:33N 37°28' E 025°19'6 5.6
2015-May-30 08:34N 37°30' E 025°13'1312.8
2015-May-30 07:34N 37°38' E 024°60'4515.0
2015-May-30 04:32N 37°59' E 024°10'7 1.7
2015-May-30 00:33N 38°01' E 024°01'1918.2
2015-May-29 23:30N 37°56' E 024°24'2418.0
2015-May-29 22:12N 37°44' E 024°50'1218.5
2015-May-29 21:34N 37°36' E 025°01'1716.9
2015-May-29 20:34N 37°28' E 025°19'2 2.3
2015-May-29 19:34N 37°28' E 025°17'1111.2
2015-May-29 18:33N 37°34' E 025°04'4814.2
2015-May-29 15:11N 37°58' E 024°12'10 1.7
2015-May-29 09:23N 38°01' E 024°01'1316.2
2015-May-29 08:33N 37°57' E 024°17'3615.0
2015-May-29 06:11N 37°40' E 024°56'1118.0
2015-May-29 05:33N 37°33' E 025°07'1111.1
2015-May-29 04:33N 37°28' E 025°20'0 0.0
2015-May-29 03:33N 37°28' E 025°20'0 0.0
2015-May-29 02:33N 37°28' E 025°20'0 0.0
2015-May-29 01:33N 37°28' E 025°20'0 0.0
2015-May-29 00:33N 37°28' E 025°20'0 0.0
2015-May-28 23:34N 37°28' E 025°20'0 0.0
2015-May-28 22:33N 37°28' E 025°20'0 0.0
2015-May-28 21:33N 37°28' E 025°20'0 0.0
2015-May-28 20:33N 37°28' E 025°20'4 3.9
2015-May-28 19:34N 37°29' E 025°15'1111.5
2015-May-28 18:33N 37°35' E 025°03'4614.3
2015-May-28 15:19N 37°58' E 024°12'9 1.6
2015-May-28 09:24N 38°01' E 024°01'1517.2
2015-May-28 08:32N 37°57' E 024°19'2814.1
2015-May-28 06:33N 37°45' E 024°51'1818.2
2015-May-28 05:33N 37°32' E 025°07'1110.7
2015-May-28 04:34N 37°28' E 025°20'0 0.0
2015-May-28 03:33N 37°28' E 025°20'0 0.0
2015-May-28 02:33N 37°28' E 025°20'0 0.0
2015-May-28 01:34N 37°28' E 025°20'0 0.0
2015-May-28 00:34N 37°28' E 025°20'0 0.0
2015-May-27 23:34N 37°28' E 025°20'0 0.0
2015-May-27 22:34N 37°28' E 025°20'0 0.0
2015-May-27 21:34N 37°28' E 025°20'0 0.0
2015-May-27 20:33N 37°28' E 025°20'1 1.4
2015-May-27 19:34N 37°28' E 025°18'1211.8
2015-May-27 18:34N 37°34' E 025°05'4514.6
2015-May-27 15:29N 37°57' E 024°17'13 2.1
2015-May-27 09:18N 38°01' E 024°01'1418.2
2015-May-27 08:32N 37°57' E 024°17'2914.4
2015-May-27 06:32N 37°45' E 024°50'1818.4
2015-May-27 05:33N 37°33' E 025°07'1110.9
2015-May-27 04:33N 37°28' E 025°20'0 0.0
2015-May-27 03:33N 37°28' E 025°20'0 0.0
2015-May-27 02:33N 37°28' E 025°20'0 0.0
2015-May-27 01:33N 37°28' E 025°20'0 0.0
2015-May-27 00:33N 37°28' E 025°20'0 0.0
2015-May-26 23:33N 37°28' E 025°20'0 0.0
2015-May-26 22:33N 37°28' E 025°20'0 0.0
2015-May-26 21:33N 37°28' E 025°20'0 0.0
2015-May-26 20:33N 37°28' E 025°20'0 0.1
2015-May-26 19:33N 37°28' E 025°20'1010.3
2015-May-26 18:33N 37°32' E 025°08'1717.5
2015-May-26 17:33N 37°44' E 024°51'2913.4
2015-May-26 15:22N 37°57' E 024°18'14 2.4
2015-May-26 09:19N 38°01' E 024°01'1417.3
2015-May-26 08:29N 37°57' E 024°18'2814.2
2015-May-26 06:30N 37°45' E 024°50'1718.6
2015-May-26 05:33N 37°33' E 025°07'1111.4
2015-May-26 04:33N 37°28' E 025°20'0 0.0
2015-May-26 03:33N 37°28' E 025°20'0 0.0
2015-May-26 02:33N 37°28' E 025°20'0 0.0
2015-May-26 01:33N 37°28' E 025°20'0 0.0
2015-May-26 00:33N 37°28' E 025°20'0 0.0
2015-May-25 23:33N 37°28' E 025°20'0 0.0
2015-May-25 22:33N 37°28' E 025°20'0 0.0
2015-May-25 21:33N 37°28' E 025°20'0 0.0
2015-May-25 20:33N 37°28' E 025°20'1 0.7
2015-May-25 19:33N 37°28' E 025°19'1212.1
2015-May-25 18:33N 37°33' E 025°05'4414.2
2015-May-25 15:29N 37°57' E 024°18'15 2.4
2015-May-25 09:20N 38°01' E 024°01'1417.5
2015-May-25 08:32N 37°57' E 024°17'2914.2
2015-May-25 06:31N 37°44' E 024°50'1818.6
2015-May-25 05:33N 37°33' E 025°07'1110.9
2015-May-25 04:33N 37°28' E 025°20'0 0.0
2015-May-25 03:33N 37°28' E 025°20'0 0.0
2015-May-25 02:33N 37°28' E 025°20'0 0.0
2015-May-25 01:33N 37°28' E 025°20'0 0.0
2015-May-25 00:33N 37°28' E 025°20'0 0.0
2015-May-24 23:33N 37°28' E 025°20'0 0.0
2015-May-24 22:33N 37°28' E 025°20'0 0.0
2015-May-24 21:33N 37°28' E 025°20'0 0.0
2015-May-24 20:33N 37°28' E 025°20'0 0.0
2015-May-24 19:33N 37°28' E 025°20'9 9.2
2015-May-24 18:33N 37°32' E 025°09'1616.3
2015-May-24 17:33N 37°42' E 024°53'3014.2
2015-May-24 15:27N 37°56' E 024°20'12 6.3
2015-May-24 13:33N 38°00' E 024°06'4615.2
2015-May-24 10:33N 37°39' E 024°57'1313.1
2015-May-24 09:33N 37°31' E 025°10'9 8.5
2015-May-24 08:33N 37°28' E 025°20'0 0.0
2015-May-24 07:33N 37°28' E 025°20'0 0.0
2015-May-24 06:33N 37°28' E 025°20'0 0.0
2015-May-24 05:33N 37°28' E 025°20'0 0.0
2015-May-24 04:33N 37°28' E 025°20'0 0.0
2015-May-24 03:33N 37°28' E 025°20'0 0.0
2015-May-24 02:33N 37°28' E 025°20'0 0.0
2015-May-24 01:33N 37°28' E 025°20'0 0.0
2015-May-24 00:33N 37°28' E 025°20'0 0.0
2015-May-23 23:33N 37°28' E 025°20'0 0.0
2015-May-23 22:33N 37°28' E 025°20'0 0.0
2015-May-23 21:33N 37°28' E 025°20'0 0.0
2015-May-23 20:33N 37°28' E 025°20'0 0.0
2015-May-23 19:33N 37°28' E 025°20'1010.2
2015-May-23 18:34N 37°32' E 025°08'1817.7
2015-May-23 17:34N 37°44' E 024°51'2914.0
2015-May-23 15:29N 37°57' E 024°18'11 5.6
2015-May-23 13:33N 38°00' E 024°05'4515.1
2015-May-23 10:34N 37°40' E 024°56'1313.2
2015-May-23 09:33N 37°32' E 025°09'9 8.9
2015-May-23 08:33N 37°28' E 025°20'0 0.0
2015-May-23 07:33N 37°28' E 025°20'0 0.0
2015-May-23 06:33N 37°28' E 025°20'0 0.0
2015-May-23 05:33N 37°28' E 025°20'0 0.0
2015-May-23 04:33N 37°28' E 025°20'0 0.0
2015-May-23 03:33N 37°28' E 025°20'0 0.0
2015-May-23 02:33N 37°28' E 025°20'0 0.0
2015-May-23 01:33N 37°28' E 025°20'0 0.0
2015-May-23 00:33N 37°28' E 025°20'0 0.0
2015-May-22 23:33N 37°28' E 025°20'0 0.0
2015-May-22 22:33N 37°28' E 025°20'0 0.0
2015-May-22 21:33N 37°28' E 025°20'0 0.0
2015-May-22 20:33N 37°28' E 025°20'0 0.2
2015-May-22 19:33N 37°28' E 025°19'1111.0
2015-May-22 18:33N 37°33' E 025°07'1817.7
2015-May-22 17:33N 37°45' E 024°51'2913.7
2015-May-22 15:26N 37°57' E 024°17'14 2.2
2015-May-22 09:19N 38°01' E 024°01'1417.3
2015-May-22 08:31N 37°57' E 024°17'2914.4
2015-May-22 06:31N 37°45' E 024°51'1818.5
2015-May-22 05:34N 37°33' E 025°07'1111.3
2015-May-22 04:33N 37°28' E 025°20'0 0.0
2015-May-22 03:33N 37°28' E 025°20'0 0.0
2015-May-22 02:34N 37°28' E 025°20'0 0.0
2015-May-22 01:33N 37°28' E 025°20'0 0.0
2015-May-22 00:33N 37°28' E 025°20'0 0.0
2015-May-21 23:33N 37°28' E 025°20'0 0.0
2015-May-21 22:33N 37°28' E 025°20'0 0.0
2015-May-21 21:33N 37°28' E 025°20'0 0.0
2015-May-21 20:33N 37°28' E 025°20'0 0.1
2015-May-21 19:33N 37°28' E 025°20'10 9.9
2015-May-21 18:33N 37°32' E 025°08'1817.6
2015-May-21 17:33N 37°44' E 024°52'44 5.3
2015-May-21 09:21N 38°01' E 024°01'1417.2
2015-May-21 08:33N 37°57' E 024°17'2914.4
2015-May-21 06:32N 37°45' E 024°51'1818.3
2015-May-21 05:34N 37°33' E 025°07'1111.1
2015-May-21 04:33N 37°28' E 025°20'0 0.0
2015-May-21 03:33N 37°28' E 025°20'0 0.0
2015-May-21 02:33N 37°28' E 025°20'0 0.0
2015-May-21 01:33N 37°28' E 025°20'0 0.0
2015-May-21 00:33N 37°28' E 025°20'0 0.0
2015-May-20 23:33N 37°28' E 025°20'0 0.0
2015-May-20 22:33N 37°28' E 025°20'0 0.0
2015-May-20 21:33N 37°28' E 025°20'0 0.0
2015-May-20 20:33N 37°28' E 025°20'0 0.0
2015-May-20 19:33N 37°28' E 025°20'10 9.8
2015-May-20 18:33N 37°32' E 025°09'1717.4
2015-May-20 17:33N 37°44' E 024°52'  

Dump ship's entire track history